Time;durP1;ratioP1;P1;durP2;ratioP2;P2;SDS_P1;SDS_P2;PMS_P1;PMS_P2;Temp;Humidity;BMP_temperature;BMP_pressure;BME280_temperature;BME280_humidity;BME280_pressure;Samples;Min_cycle;Max_cycle;Signal;HPM_P1;HPM_P2
2024/01/11 00:01:45;;;;;;;26.57;11.40;;;;;;;;;;5014213;28;20459;-93
2024/01/11 00:04:10;;;;;;;31.60;11.75;;;;;;;;;;5012753;28;20018;-92
2024/01/11 00:06:39;;;;;;;32.97;12.33;;;;;;;;;;5013644;28;20536;-92
2024/01/11 00:09:05;;;;;;;29.45;11.85;;;;;;;;;;5015222;28;20597;-92
2024/01/11 00:11:30;;;;;;;33.53;12.87;;;;;;;;;;5025144;28;20014;-93
2024/01/11 00:13:55;;;;;;;26.60;11.73;;;;;;;;;;5023959;28;20112;-92
2024/01/11 00:16:20;;;;;;;30.50;11.93;;;;;;;;;;5019303;28;20043;-92
2024/01/11 00:18:45;;;;;;;29.30;11.77;;;;;;;;;;5014736;28;20488;-93
2024/01/11 00:21:11;;;;;;;28.33;11.83;;;;;;;;;;5013699;28;20026;-91
2024/01/11 00:23:36;;;;;;;30.57;11.63;;;;;;;;;;5014134;28;20370;-92
2024/01/11 00:26:01;;;;;;;28.17;11.77;;;;;;;;;;5013759;28;20058;-92
2024/01/11 00:28:26;;;;;;;32.10;12.00;;;;;;;;;;5012027;28;20010;-92
2024/01/11 00:30:51;;;;;;;33.07;12.47;;;;;;;;;;5012535;28;20040;-92
2024/01/11 00:33:16;;;;;;;29.40;11.67;;;;;;;;;;5013504;28;20033;-92
2024/01/11 00:35:42;;;;;;;31.83;12.10;;;;;;;;;;5013327;28;20033;-92
2024/01/11 00:38:07;;;;;;;32.67;12.20;;;;;;;;;;5012850;28;20030;-91
2024/01/11 00:40:32;;;;;;;32.93;11.97;;;;;;;;;;5014941;28;20014;-92
2024/01/11 00:42:57;;;;;;;29.93;12.13;;;;;;;;;;5030863;28;20030;-91
2024/01/11 00:45:22;;;;;;;29.83;12.93;;;;;;;;;;5019209;28;20034;-91
2024/01/11 00:47:47;;;;;;;31.00;11.93;;;;;;;;;;5014224;28;20022;-90
2024/01/11 00:50:13;;;;;;;30.03;12.20;;;;;;;;;;5011844;28;20026;-91
2024/01/11 00:52:38;;;;;;;29.33;11.67;;;;;;;;;;5014711;28;20026;-90
2024/01/11 00:55:03;;;;;;;26.87;11.03;;;;;;;;;;5020749;28;20095;-91
2024/01/11 00:57:29;;;;;;;26.57;11.57;;;;;;;;;;5024141;28;20295;-93
2024/01/11 00:59:54;;;;;;;31.43;12.67;;;;;;;;;;5025223;28;20033;-91
2024/01/11 01:02:20;;;;;;;33.77;12.17;;;;;;;;;;5012733;28;20441;-93
2024/01/11 01:04:45;;;;;;;28.87;10.43;;;;;;;;;;5013037;28;20429;-92
2024/01/11 01:07:11;;;;;;;33.90;12.37;;;;;;;;;;5013055;28;20602;-91
2024/01/11 01:09:38;;;;;;;32.13;12.00;;;;;;;;;;5011604;28;20033;-92
2024/01/11 01:12:03;;;;;;;26.60;11.85;;;;;;;;;;5010878;28;20029;-92
2024/01/11 01:14:28;;;;;;;27.38;11.85;;;;;;;;;;5012448;28;20040;-92
2024/01/11 01:16:56;;;;;;;29.47;12.77;;;;;;;;;;5011423;28;20177;-91
2024/01/11 01:19:21;;;;;;;32.77;12.13;;;;;;;;;;5012661;28;20109;-91
2024/01/11 01:21:46;;;;;;;30.97;12.37;;;;;;;;;;5010977;28;20284;-92
2024/01/11 01:24:11;;;;;;;33.93;12.63;;;;;;;;;;5013016;28;20030;-92
2024/01/11 01:26:37;;;;;;;31.30;12.33;;;;;;;;;;5012950;28;20029;-91
2024/01/11 01:29:03;;;;;;;29.17;11.43;;;;;;;;;;5011382;28;20026;-92
2024/01/11 01:31:29;;;;;;;25.23;11.18;;;;;;;;;;5012368;28;20030;-92
2024/01/11 01:33:54;;;;;;;33.43;12.83;;;;;;;;;;5012856;28;20026;-92
2024/01/11 01:36:19;;;;;;;35.90;13.13;;;;;;;;;;5013766;28;20280;-91
2024/01/11 01:38:45;;;;;;;31.87;12.77;;;;;;;;;;5019176;28;20029;-92
2024/01/11 01:41:10;;;;;;;29.77;12.07;;;;;;;;;;5021685;28;20033;-91
2024/01/11 01:43:35;;;;;;;31.37;12.77;;;;;;;;;;5025816;28;20036;-91
2024/01/11 01:46:01;;;;;;;27.97;11.70;;;;;;;;;;5014937;28;20512;-92
2024/01/11 01:48:26;;;;;;;33.43;12.43;;;;;;;;;;5013118;28;20018;-92
2024/01/11 01:50:52;;;;;;;31.45;11.98;;;;;;;;;;5010670;28;20022;-92
2024/01/11 01:53:21;;;;;;;31.83;12.73;;;;;;;;;;5012615;28;20110;-92
2024/01/11 01:55:48;;;;;;;30.60;12.82;;;;;;;;;;5012441;28;20026;-92
2024/01/11 01:58:13;;;;;;;29.60;11.57;;;;;;;;;;5011423;28;20041;-92
2024/01/11 02:00:41;;;;;;;35.57;13.20;;;;;;;;;;5013160;28;20461;-91
2024/01/11 02:03:06;;;;;;;26.27;10.80;;;;;;;;;;5010896;28;20069;-92
2024/01/11 02:05:31;;;;;;;29.10;11.80;;;;;;;;;;5011649;28;20622;-92
2024/01/11 02:07:57;;;;;;;29.63;12.20;;;;;;;;;;5012098;28;20010;-91
2024/01/11 02:10:23;;;;;;;27.60;12.07;;;;;;;;;;5012259;28;20026;-92
2024/01/11 02:12:49;;;;;;;28.00;11.30;;;;;;;;;;5010573;28;20265;-93
2024/01/11 02:15:14;;;;;;;28.58;12.35;;;;;;;;;;5011098;28;20032;-92
2024/01/11 02:17:40;;;;;;;31.03;12.20;;;;;;;;;;5010770;28;20109;-91
2024/01/11 02:20:05;;;;;;;29.90;12.48;;;;;;;;;;5011925;28;20056;-92
2024/01/11 02:22:36;;;;;;;34.47;12.90;;;;;;;;;;5016275;28;20179;-92
2024/01/11 02:25:02;;;;;;;33.03;12.75;;;;;;;;;;5017643;28;20460;-92
2024/01/11 02:27:27;;;;;;;30.57;12.10;;;;;;;;;;5024943;28;20015;-91
2024/01/11 02:29:52;;;;;;;30.20;11.80;;;;;;;;;;5015355;28;20022;-92
2024/01/11 02:32:17;;;;;;;30.10;12.53;;;;;;;;;;5013673;28;20105;-93
2024/01/11 02:34:43;;;;;;;31.10;12.43;;;;;;;;;;5015225;28;20462;-91
2024/01/11 02:37:08;;;;;;;26.70;12.10;;;;;;;;;;5030685;28;20053;-93
2024/01/11 02:39:33;;;;;;;34.43;12.60;;;;;;;;;;5010839;28;20362;-91
2024/01/11 02:41:59;;;;;;;40.07;12.50;;;;;;;;;;5010399;28;20030;-90
2024/01/11 02:44:24;;;;;;;29.43;12.03;;;;;;;;;;5011627;28;20029;-93
2024/01/11 02:46:50;;;;;;;33.37;12.03;;;;;;;;;;5012570;28;20030;-92
2024/01/11 02:49:15;;;;;;;32.70;11.97;;;;;;;;;;5010410;28;20264;-91
2024/01/11 02:51:40;;;;;;;27.93;11.60;;;;;;;;;;5015242;28;20522;-94
2024/01/11 02:54:05;;;;;;;26.10;11.70;;;;;;;;;;5015715;28;20377;-95
2024/01/11 02:56:30;;;;;;;28.63;11.47;;;;;;;;;;5016332;28;20115;-91
2024/01/11 02:58:56;;;;;;;30.60;12.13;;;;;;;;;;5014236;28;20386;-91
2024/01/11 03:01:21;;;;;;;28.37;11.87;;;;;;;;;;5015274;28;20048;-92
2024/01/11 03:03:46;;;;;;;31.37;12.57;;;;;;;;;;5014757;28;20029;-92
2024/01/11 03:06:11;;;;;;;31.63;12.53;;;;;;;;;;5023240;28;20030;-93
2024/01/11 03:08:37;;;;;;;32.43;12.40;;;;;;;;;;5019113;28;20021;-93
2024/01/11 03:11:02;;;;;;;28.07;11.90;;;;;;;;;;5026250;28;20032;-92
2024/01/11 03:13:27;;;;;;;30.17;12.37;;;;;;;;;;5036272;28;20125;-92
2024/01/11 03:15:52;;;;;;;30.73;12.10;;;;;;;;;;5036806;28;20010;-92
2024/01/11 03:18:17;;;;;;;27.37;11.87;;;;;;;;;;5027352;28;20450;-93
2024/01/11 03:20:43;;;;;;;33.03;12.40;;;;;;;;;;5015368;28;20054;-92
2024/01/11 03:23:08;;;;;;;33.83;13.07;;;;;;;;;;5015513;28;20028;-92
2024/01/11 03:25:33;;;;;;;30.17;12.82;;;;;;;;;;5014089;28;20486;-92
2024/01/11 03:28:01;;;;;;;33.10;13.40;;;;;;;;;;5014812;28;20025;-92
2024/01/11 03:30:28;;;;;;;35.43;13.00;;;;;;;;;;5015001;28;20060;-92
2024/01/11 03:32:53;;;;;;;39.67;13.63;;;;;;;;;;5014778;28;20101;-92
2024/01/11 03:35:18;;;;;;;32.83;12.80;;;;;;;;;;5013925;28;20613;-92
2024/01/11 03:37:43;;;;;;;31.03;12.13;;;;;;;;;;5015149;28;20378;-92
2024/01/11 03:40:09;;;;;;;31.03;11.80;;;;;;;;;;5013603;28;20303;-93
2024/01/11 03:42:34;;;;;;;26.93;12.20;;;;;;;;;;5015677;28;20025;-92
2024/01/11 03:44:59;;;;;;;32.67;13.43;;;;;;;;;;5013876;28;20496;-92
2024/01/11 03:47:26;;;;;;;30.93;12.53;;;;;;;;;;5015441;28;20014;-93
2024/01/11 03:49:51;;;;;;;34.35;13.77;;;;;;;;;;5020389;28;20113;-91
2024/01/11 03:52:16;;;;;;;31.93;12.80;;;;;;;;;;5017179;28;20057;-92
2024/01/11 03:54:42;;;;;;;35.83;14.17;;;;;;;;;;5025688;28;20018;-92
2024/01/11 03:57:08;;;;;;;29.45;13.20;;;;;;;;;;5015465;28;20022;-93
2024/01/11 03:59:33;;;;;;;36.00;13.23;;;;;;;;;;5015303;28;20028;-93
2024/01/11 04:01:58;;;;;;;29.83;11.83;;;;;;;;;;5012803;28;20018;-91
2024/01/11 04:04:24;;;;;;;33.33;12.33;;;;;;;;;;5013317;28;20026;-93
2024/01/11 04:06:49;;;;;;;29.43;11.13;;;;;;;;;;5015075;28;20054;-92
2024/01/11 04:09:15;;;;;;;29.73;11.73;;;;;;;;;;5013919;28;20060;-92
2024/01/11 04:11:40;;;;;;;33.20;12.80;;;;;;;;;;5012772;28;20041;-93
2024/01/11 04:14:06;;;;;;;30.77;12.60;;;;;;;;;;5013100;28;20437;-93
2024/01/11 04:16:31;;;;;;;37.08;13.18;;;;;;;;;;5013172;28;20018;-94
2024/01/11 04:18:56;;;;;;;36.00;13.57;;;;;;;;;;5013953;28;20466;-93
2024/01/11 04:21:28;;;;;;;31.27;11.70;;;;;;;;;;5012779;28;20362;-94
2024/01/11 04:23:53;;;;;;;29.65;12.15;;;;;;;;;;5014824;28;20021;-92
2024/01/11 04:26:19;;;;;;;21.07;8.70;;;;;;;;;;5015392;28;20018;-92
2024/01/11 04:28:48;;;;;;;27.97;11.90;;;;;;;;;;5026555;28;20597;-93
2024/01/11 04:31:14;;;;;;;36.05;13.07;;;;;;;;;;5021601;28;20061;-93
2024/01/11 04:33:40;;;;;;;27.73;12.35;;;;;;;;;;5020505;28;20014;-93
2024/01/11 04:36:05;;;;;;;31.83;11.83;;;;;;;;;;5023076;28;20018;-93
2024/01/11 04:38:31;;;;;;;33.95;12.02;;;;;;;;;;5028525;28;20022;-93
2024/01/11 04:40:56;;;;;;;32.23;12.77;;;;;;;;;;5017952;28;20030;-92
2024/01/11 04:43:21;;;;;;;26.43;11.73;;;;;;;;;;5014340;28;20068;-92
2024/01/11 04:45:46;;;;;;;26.97;11.63;;;;;;;;;;5014520;28;20080;-92
2024/01/11 04:48:11;;;;;;;34.93;11.40;;;;;;;;;;5014045;28;20105;-93
2024/01/11 04:50:37;;;;;;;32.13;12.17;;;;;;;;;;5013853;28;20113;-93
2024/01/11 04:53:03;;;;;;;25.83;11.00;;;;;;;;;;4996172;28;20078;-93
2024/01/11 04:55:28;;;;;;;26.30;11.32;;;;;;;;;;5013991;28;20612;-93
2024/01/11 04:57:54;;;;;;;26.37;11.03;;;;;;;;;;5014323;28;20026;-92
2024/01/11 05:00:19;;;;;;;27.23;10.93;;;;;;;;;;5014070;28;20029;-92
2024/01/11 05:02:44;;;;;;;29.97;10.87;;;;;;;;;;5013650;28;20022;-93
2024/01/11 05:05:10;;;;;;;23.27;10.90;;;;;;;;;;5012735;28;20030;-93
2024/01/11 05:07:35;;;;;;;31.37;12.03;;;;;;;;;;5013180;28;20029;-93
2024/01/11 05:10:00;;;;;;;22.50;9.50;;;;;;;;;;5012658;28;20088;-93
2024/01/11 05:12:25;;;;;;;25.53;10.80;;;;;;;;;;5012546;28;20331;-93
2024/01/11 05:14:50;;;;;;;26.00;11.17;;;;;;;;;;5013136;28;20014;-94
2024/01/11 05:17:16;;;;;;;33.33;11.10;;;;;;;;;;5017412;28;20022;-94
2024/01/11 05:19:41;;;;;;;29.97;11.47;;;;;;;;;;5027672;28;20100;-94
2024/01/11 05:22:07;;;;;;;32.83;11.87;;;;;;;;;;5028751;28;20025;-95
2024/01/11 05:24:33;;;;;;;27.15;10.40;;;;;;;;;;5018236;28;20033;-93
2024/01/11 05:26:59;;;;;;;28.63;11.90;;;;;;;;;;5014508;28;20014;-95
2024/01/11 05:29:24;;;;;;;29.00;11.35;;;;;;;;;;5013329;28;20056;-95
2024/01/11 05:31:49;;;;;;;31.53;11.37;;;;;;;;;;5013722;28;20014;-94
2024/01/11 05:34:15;;;;;;;27.75;10.30;;;;;;;;;;5014647;28;20091;-94
2024/01/11 05:36:40;;;;;;;29.43;11.07;;;;;;;;;;5013119;28;20022;-94
2024/01/11 05:39:06;;;;;;;25.40;11.37;;;;;;;;;;5014890;28;20029;-94
2024/01/11 05:41:31;;;;;;;24.80;10.27;;;;;;;;;;5012608;28;20176;-94
2024/01/11 05:43:56;;;;;;;29.40;12.13;;;;;;;;;;5014503;28;20022;-94
2024/01/11 05:46:21;;;;;;;34.57;12.20;;;;;;;;;;5014036;28;20034;-95
2024/01/11 05:48:50;;;;;;;30.30;12.13;;;;;;;;;;5015066;28;20049;-95
2024/01/11 05:51:15;;;;;;;26.35;12.18;;;;;;;;;;5030736;28;20036;-94
2024/01/11 05:53:41;;;;;;;29.00;12.17;;;;;;;;;;5033041;28;20033;-93
2024/01/11 05:56:07;;;;;;;24.88;10.80;;;;;;;;;;5032900;28;20026;-94
2024/01/11 05:58:32;;;;;;;32.10;12.05;;;;;;;;;;5032617;28;20049;-94
2024/01/11 06:00:58;;;;;;;25.87;10.60;;;;;;;;;;5027455;28;20018;-94
2024/01/11 06:03:23;;;;;;;24.97;10.37;;;;;;;;;;5027537;28;20026;-94
2024/01/11 06:05:48;;;;;;;24.60;10.97;;;;;;;;;;5032605;28;20037;-95
2024/01/11 06:08:14;;;;;;;30.10;11.37;;;;;;;;;;5025853;28;20081;-94
2024/01/11 06:10:39;;;;;;;23.73;10.67;;;;;;;;;;5020988;28;20021;-93
2024/01/11 06:13:04;;;;;;;26.15;10.65;;;;;;;;;;5015650;28;20022;-94
2024/01/11 06:15:31;;;;;;;34.57;11.93;;;;;;;;;;5016790;28;20359;-92
2024/01/11 06:17:57;;;;;;;28.15;11.15;;;;;;;;;;5015484;28;20033;-94
2024/01/11 06:20:22;;;;;;;33.07;12.57;;;;;;;;;;5019930;28;20018;-94
2024/01/11 06:22:48;;;;;;;27.17;10.67;;;;;;;;;;5023191;28;20119;-95
2024/01/11 06:25:15;;;;;;;25.80;11.07;;;;;;;;;;5016093;28;20350;-94
2024/01/11 06:27:42;;;;;;;27.93;11.50;;;;;;;;;;5017799;28;20381;-93
2024/01/11 06:30:07;;;;;;;30.85;11.20;;;;;;;;;;5025829;28;20395;-93
2024/01/11 06:32:32;;;;;;;26.50;11.20;;;;;;;;;;5038944;28;20022;-92
2024/01/11 06:34:58;;;;;;;26.17;10.53;;;;;;;;;;5038971;28;20021;-92
2024/01/11 06:37:23;;;;;;;24.83;10.00;;;;;;;;;;5018509;28;20013;-93
2024/01/11 06:39:48;;;;;;;25.23;10.40;;;;;;;;;;5016812;28;20105;-93
2024/01/11 06:42:14;;;;;;;25.60;10.23;;;;;;;;;;5015773;28;20169;-93
2024/01/11 06:44:39;;;;;;;25.02;10.57;;;;;;;;;;5015830;28;20018;-93
2024/01/11 06:47:05;;;;;;;27.93;10.83;;;;;;;;;;5024953;28;20038;-93
2024/01/11 06:49:30;;;;;;;26.10;10.23;;;;;;;;;;5027896;28;20064;-93
2024/01/11 06:51:55;;;;;;;25.37;10.30;;;;;;;;;;5019124;28;20025;-93
2024/01/11 06:54:21;;;;;;;21.60;9.40;;;;;;;;;;5016632;28;20025;-92
2024/01/11 06:56:46;;;;;;;21.43;9.90;;;;;;;;;;5014650;28;20279;-93
2024/01/11 06:59:11;;;;;;;26.37;10.33;;;;;;;;;;5015595;28;20029;-93
2024/01/11 07:01:36;;;;;;;24.83;10.07;;;;;;;;;;5015363;28;20022;-93
2024/01/11 07:04:01;;;;;;;24.50;10.33;;;;;;;;;;5015694;28;20082;-93
2024/01/11 07:06:27;;;;;;;26.07;10.10;;;;;;;;;;5016118;28;20042;-94
2024/01/11 07:08:53;;;;;;;26.07;10.13;;;;;;;;;;5015565;28;20021;-93
2024/01/11 07:11:19;;;;;;;28.38;11.77;;;;;;;;;;5015855;28;20072;-93
2024/01/11 07:13:44;;;;;;;26.10;10.70;;;;;;;;;;5016841;28;20013;-94
2024/01/11 07:16:09;;;;;;;29.80;10.93;;;;;;;;;;5016186;28;20076;-93
2024/01/11 07:18:34;;;;;;;25.00;10.83;;;;;;;;;;5016091;28;20030;-92
2024/01/11 07:21:00;;;;;;;24.43;10.03;;;;;;;;;;5016188;28;20061;-94
2024/01/11 07:23:25;;;;;;;27.43;10.47;;;;;;;;;;5016755;28;20370;-94
2024/01/11 07:25:50;;;;;;;27.27;10.80;;;;;;;;;;5017124;28;20037;-93
2024/01/11 07:28:17;;;;;;;23.43;9.83;;;;;;;;;;5019513;28;20025;-94
2024/01/11 07:30:42;;;;;;;32.17;10.70;;;;;;;;;;5020573;28;20024;-93
2024/01/11 07:33:07;;;;;;;28.97;10.73;;;;;;;;;;5036902;28;20032;-93
2024/01/11 07:35:32;;;;;;;27.30;11.77;;;;;;;;;;5023021;28;20021;-94
2024/01/11 07:37:57;;;;;;;28.87;12.00;;;;;;;;;;5019053;28;20018;-93
2024/01/11 07:40:23;;;;;;;25.17;10.37;;;;;;;;;;5017658;28;20021;-93
2024/01/11 07:42:48;;;;;;;28.38;10.68;;;;;;;;;;5019172;28;20117;-93
2024/01/11 07:45:13;;;;;;;30.83;11.03;;;;;;;;;;5018940;28;20499;-92
2024/01/11 07:47:39;;;;;;;23.70;10.50;;;;;;;;;;5019423;28;20018;-93
2024/01/11 07:50:09;;;;;;;27.43;10.47;;;;;;;;;;5025659;28;20017;-93
2024/01/11 07:52:34;;;;;;;28.73;11.02;;;;;;;;;;5038653;28;20053;-93
2024/01/11 07:55:06;;;;;;;28.10;11.10;;;;;;;;;;5039170;28;20030;-93
2024/01/11 07:57:31;;;;;;;25.30;10.95;;;;;;;;;;5038464;28;20002;-92
2024/01/11 07:59:59;;;;;;;25.87;11.50;;;;;;;;;;5037004;28;20040;-92
2024/01/11 08:02:24;;;;;;;32.63;12.13;;;;;;;;;;5038437;28;20006;-93
2024/01/11 08:04:49;;;;;;;33.60;12.93;;;;;;;;;;5039364;28;20466;-92
2024/01/11 08:07:14;;;;;;;32.63;13.53;;;;;;;;;;5039216;28;20022;-91
2024/01/11 08:09:44;;;;;;;33.77;15.27;;;;;;;;;;5038959;28;20086;-92
2024/01/11 08:12:10;;;;;;;34.58;15.65;;;;;;;;;;5038611;28;20022;-91
2024/01/11 08:14:35;;;;;;;28.93;14.50;;;;;;;;;;5034606;28;20025;-92
2024/01/11 08:17:01;;;;;;;29.57;13.43;;;;;;;;;;5035835;28;20006;-92
2024/01/11 08:19:27;;;;;;;38.85;14.90;;;;;;;;;;5038176;28;20887;-92
2024/01/11 08:21:56;;;;;;;29.33;14.03;;;;;;;;;;5037546;28;20058;-92
2024/01/11 08:24:23;;;;;;;30.80;13.88;;;;;;;;;;5036590;28;20025;-93
2024/01/11 08:26:48;;;;;;;30.58;12.70;;;;;;;;;;5036118;28;20034;-91
2024/01/11 08:29:15;;;;;;;25.88;12.27;;;;;;;;;;5036797;28;20054;-93
2024/01/11 08:31:43;;;;;;;28.05;11.73;;;;;;;;;;5037048;28;20006;-91
2024/01/11 08:34:08;;;;;;;27.77;12.40;;;;;;;;;;5036802;28;20009;-91
2024/01/11 08:36:34;;;;;;;29.07;12.73;;;;;;;;;;5026866;28;20308;-92
2024/01/11 08:39:01;;;;;;;31.50;12.83;;;;;;;;;;5034074;28;20006;-92
2024/01/11 08:41:26;;;;;;;30.95;13.48;;;;;;;;;;5031999;28;20045;-93
2024/01/11 08:43:51;;;;;;;31.90;13.13;;;;;;;;;;5016547;28;20466;-92
2024/01/11 08:46:25;;;;;;;33.58;14.75;;;;;;;;;;5017176;28;20113;-93
2024/01/11 08:48:50;;;;;;;31.05;14.02;;;;;;;;;;5014900;28;20046;-93
2024/01/11 08:51:16;;;;;;;40.97;17.10;;;;;;;;;;5015359;28;20092;-93
2024/01/11 08:53:42;;;;;;;34.63;15.30;;;;;;;;;;5017994;28;20037;-93
2024/01/11 08:56:07;;;;;;;31.67;13.55;;;;;;;;;;5025413;28;20205;-92
2024/01/11 08:58:33;;;;;;;40.87;15.13;;;;;;;;;;5027109;28;20080;-92
2024/01/11 09:00:58;;;;;;;31.27;13.63;;;;;;;;;;5018958;28;20022;-92
2024/01/11 09:03:24;;;;;;;29.73;14.30;;;;;;;;;;5020318;28;20028;-92
2024/01/11 09:05:49;;;;;;;32.40;12.85;;;;;;;;;;5014840;28;20117;-92
2024/01/11 09:08:14;;;;;;;36.60;14.03;;;;;;;;;;5015323;28;20022;-92
2024/01/11 09:10:41;;;;;;;35.20;14.00;;;;;;;;;;5016063;28;20478;-92
2024/01/11 09:13:06;;;;;;;30.60;13.23;;;;;;;;;;5015991;28;20088;-92
2024/01/11 09:15:31;;;;;;;34.57;13.87;;;;;;;;;;5016506;28;20760;-93
2024/01/11 09:18:00;;;;;;;32.50;14.87;;;;;;;;;;5017025;28;20018;-93
2024/01/11 09:20:25;;;;;;;32.80;13.87;;;;;;;;;;5016089;28;20104;-92
2024/01/11 09:22:50;;;;;;;40.57;15.17;;;;;;;;;;5019557;28;20297;-93
2024/01/11 09:25:15;;;;;;;28.97;12.57;;;;;;;;;;5018767;28;20069;-92
2024/01/11 09:27:40;;;;;;;30.87;13.53;;;;;;;;;;5016278;28;20018;-92
2024/01/11 09:30:07;;;;;;;29.25;12.40;;;;;;;;;;5015340;28;20104;-92
2024/01/11 09:32:32;;;;;;;33.23;12.33;;;;;;;;;;5015687;28;20014;-91
2024/01/11 09:34:57;;;;;;;32.53;14.40;;;;;;;;;;5016833;28;20022;-92
2024/01/11 09:37:22;;;;;;;34.17;14.50;;;;;;;;;;5016499;28;20021;-91
2024/01/11 09:39:48;;;;;;;34.83;14.37;;;;;;;;;;5020314;28;20025;-92
2024/01/11 09:42:13;;;;;;;29.87;13.67;;;;;;;;;;5033592;28;20010;-93
2024/01/11 09:44:39;;;;;;;38.53;14.57;;;;;;;;;;5021118;28;20030;-91
2024/01/11 09:47:06;;;;;;;35.53;14.98;;;;;;;;;;5026394;28;20014;-92
2024/01/11 09:49:32;;;;;;;30.13;14.15;;;;;;;;;;5035665;28;20016;-93
2024/01/11 09:51:58;;;;;;;34.57;13.83;;;;;;;;;;5035061;28;20022;-92
2024/01/11 09:54:24;;;;;;;33.42;14.40;;;;;;;;;;5017700;28;20022;-93
2024/01/11 09:56:51;;;;;;;31.80;14.43;;;;;;;;;;5020455;28;20026;-92
2024/01/11 09:59:18;;;;;;;33.95;14.82;;;;;;;;;;5012303;28;20030;-93
2024/01/11 10:01:43;;;;;;;29.27;13.65;;;;;;;;;;5013061;28;20029;-92
2024/01/11 10:04:09;;;;;;;37.53;15.33;;;;;;;;;;5016490;28;20056;-93
2024/01/11 10:06:36;;;;;;;31.50;15.33;;;;;;;;;;5024734;28;20025;-92
2024/01/11 10:09:02;;;;;;;34.60;16.13;;;;;;;;;;5027195;28;20768;-93
2024/01/11 10:11:28;;;;;;;37.45;16.10;;;;;;;;;;5015407;28;20022;-92
2024/01/11 10:13:57;;;;;;;35.87;15.33;;;;;;;;;;5014917;28;20101;-93
2024/01/11 10:16:22;;;;;;;37.88;16.55;;;;;;;;;;5014264;28;20056;-93
2024/01/11 10:18:47;;;;;;;35.07;15.43;;;;;;;;;;5016152;28;20033;-93
2024/01/11 10:21:13;;;;;;;34.80;14.70;;;;;;;;;;5016776;28;20065;-92
2024/01/11 10:23:39;;;;;;;35.08;14.82;;;;;;;;;;5020212;28;20025;-93
2024/01/11 10:26:04;;;;;;;37.90;16.27;;;;;;;;;;5032498;28;20464;-93
2024/01/11 10:28:29;;;;;;;30.30;13.90;;;;;;;;;;5023038;28;20081;-92
2024/01/11 10:30:55;;;;;;;32.27;14.40;;;;;;;;;;5017889;28;20517;-93
2024/01/11 10:33:21;;;;;;;29.83;13.50;;;;;;;;;;5018214;28;20665;-92
2024/01/11 10:35:47;;;;;;;36.35;15.30;;;;;;;;;;5018288;28;20096;-93
2024/01/11 10:38:13;;;;;;;37.53;14.47;;;;;;;;;;5019521;28;20041;-92
2024/01/11 10:40:38;;;;;;;30.77;14.10;;;;;;;;;;5022147;28;20474;-93
2024/01/11 10:43:05;;;;;;;29.13;12.20;;;;;;;;;;5021168;28;20033;-92
2024/01/11 10:45:31;;;;;;;31.88;14.30;;;;;;;;;;5018325;28;20092;-92
2024/01/11 10:48:17;;;;;;;33.53;14.02;;;;;;;;;;5016652;28;20014;-93
2024/01/11 10:50:43;;;;;;;33.35;13.98;;;;;;;;;;5017470;28;20026;-92
2024/01/11 10:53:14;;;;;;;33.10;14.25;;;;;;;;;;5017567;28;20048;-93
2024/01/11 10:55:42;;;;;;;32.77;15.00;;;;;;;;;;5018201;28;20060;-94
2024/01/11 10:58:07;;;;;;;30.08;13.85;;;;;;;;;;5017265;28;20018;-92
2024/01/11 11:00:35;;;;;;;30.17;14.43;;;;;;;;;;5014947;28;20046;-93
2024/01/11 11:03:00;;;;;;;35.95;15.88;;;;;;;;;;5017842;28;20018;-93
2024/01/11 11:05:27;;;;;;;35.00;15.33;;;;;;;;;;5018526;28;20124;-93
2024/01/11 11:07:54;;;;;;;34.47;14.30;;;;;;;;;;5022917;28;20022;-92
2024/01/11 11:10:19;;;;;;;35.23;14.13;;;;;;;;;;5028748;28;20113;-93
2024/01/11 11:12:48;;;;;;;35.97;14.83;;;;;;;;;;5020861;28;20293;-94
2024/01/11 11:15:14;;;;;;;32.20;15.00;;;;;;;;;;5017746;28;20098;-93
2024/01/11 11:17:40;;;;;;;27.83;14.83;;;;;;;;;;5019212;28;20085;-94
2024/01/11 11:20:07;;;;;;;36.20;14.43;;;;;;;;;;5019255;28;20017;-93
2024/01/11 11:22:36;;;;;;;31.05;13.20;;;;;;;;;;5021675;28;20022;-94
2024/01/11 11:25:07;;;;;;;34.17;14.93;;;;;;;;;;5022738;28;20037;-94
2024/01/11 11:27:33;;;;;;;26.83;13.03;;;;;;;;;;5021033;28;20293;-93
2024/01/11 11:29:58;;;;;;;37.60;16.08;;;;;;;;;;5020742;28;20029;-93
2024/01/11 11:32:38;;;;;;;33.47;15.03;;;;;;;;;;5020120;28;20022;-93
2024/01/11 11:35:03;;;;;;;33.53;13.63;;;;;;;;;;5020006;28;20057;-94
2024/01/11 11:37:29;;;;;;;31.80;14.50;;;;;;;;;;5020830;28;20025;-94
2024/01/11 11:39:54;;;;;;;31.38;14.32;;;;;;;;;;5018908;28;20088;-94
2024/01/11 11:42:22;;;;;;;33.13;15.07;;;;;;;;;;5022127;28;20026;-95
2024/01/11 11:44:53;;;;;;;32.67;14.63;;;;;;;;;;5021383;28;20025;-95
2024/01/11 11:47:19;;;;;;;29.33;14.87;;;;;;;;;;5021366;28;20030;-94
2024/01/11 11:50:00;;;;;;;29.73;13.25;;;;;;;;;;5032061;28;20021;-94
2024/01/11 11:52:26;;;;;;;31.83;14.60;;;;;;;;;;5021042;28;20477;-93
2024/01/11 11:54:51;;;;;;;34.63;15.43;;;;;;;;;;5022113;28;20018;-95
2024/01/11 11:57:17;;;;;;;35.03;15.23;;;;;;;;;;5021870;28;20171;-96
2024/01/11 11:59:43;;;;;;;30.15;14.73;;;;;;;;;;5024132;28;20104;-96
2024/01/11 12:02:11;;;;;;;32.77;14.30;;;;;;;;;;5030221;28;20036;-96
2024/01/11 12:04:38;;;;;;;33.53;14.25;;;;;;;;;;5037282;28;20014;-96
2024/01/11 12:07:04;;;;;;;34.70;15.40;;;;;;;;;;5026654;28;20101;-94
2024/01/11 12:09:29;;;;;;;34.37;15.67;;;;;;;;;;5021359;28;20048;-95
2024/01/11 12:11:54;;;;;;;29.20;12.73;;;;;;;;;;5023302;28;20053;-96
2024/01/11 12:14:20;;;;;;;27.73;13.47;;;;;;;;;;5023060;28;20029;-95
2024/01/11 12:16:55;;;;;;;33.77;13.83;;;;;;;;;;5022259;28;20028;-96
2024/01/11 12:19:20;;;;;;;28.08;12.93;;;;;;;;;;5021019;28;20022;-95
2024/01/11 12:21:45;;;;;;;32.50;16.20;;;;;;;;;;5020590;28;20018;-96
2024/01/11 12:24:11;;;;;;;23.90;12.67;;;;;;;;;;5015038;28;20074;-95
2024/01/11 12:26:38;;;;;;;32.35;14.52;;;;;;;;;;5019297;28;20057;-95
2024/01/11 12:29:04;;;;;;;32.92;14.30;;;;;;;;;;5017137;28;20018;-94
2024/01/11 12:31:29;;;;;;;28.37;13.10;;;;;;;;;;5016033;28;20116;-94
2024/01/11 12:33:54;;;;;;;32.23;14.50;;;;;;;;;;5017616;28;20026;-94
2024/01/11 12:36:20;;;;;;;34.35;14.40;;;;;;;;;;5017010;28;20026;-92
2024/01/11 12:38:48;;;;;;;29.03;13.13;;;;;;;;;;5017084;28;20028;-94
2024/01/11 12:41:14;;;;;;;28.65;14.10;;;;;;;;;;5016880;28;20020;-93
2024/01/11 12:43:39;;;;;;;30.33;13.83;;;;;;;;;;5015494;28;20026;-93
2024/01/11 12:46:04;;;;;;;34.97;13.93;;;;;;;;;;5015063;28;20117;-93
2024/01/11 12:48:30;;;;;;;31.80;14.73;;;;;;;;;;5017142;28;20018;-92
2024/01/11 12:50:56;;;;;;;28.30;14.47;;;;;;;;;;5015393;28;20076;-92
2024/01/11 12:53:21;;;;;;;32.00;15.10;;;;;;;;;;5017339;28;20018;-91
2024/01/11 12:55:47;;;;;;;31.50;13.53;;;;;;;;;;5015053;28;20363;-92
2024/01/11 12:58:13;;;;;;;31.50;13.63;;;;;;;;;;5016226;28;20017;-94
2024/01/11 13:00:38;;;;;;;34.50;15.10;;;;;;;;;;5017490;28;20100;-93
2024/01/11 13:03:04;;;;;;;30.10;13.33;;;;;;;;;;5018385;28;20026;-93
2024/01/11 13:05:36;;;;;;;31.75;14.60;;;;;;;;;;5016571;28;20026;-92
2024/01/11 13:08:02;;;;;;;39.38;15.13;;;;;;;;;;5016380;28;20081;-92
2024/01/11 13:10:27;;;;;;;34.08;14.55;;;;;;;;;;5016470;28;20018;-93
2024/01/11 13:12:53;;;;;;;33.67;14.87;;;;;;;;;;5017844;28;20064;-93
2024/01/11 13:15:18;;;;;;;34.40;16.40;;;;;;;;;;5018878;28;20521;-92
2024/01/11 13:17:43;;;;;;;32.80;16.17;;;;;;;;;;5016110;28;20279;-94
2024/01/11 13:20:09;;;;;;;29.87;14.50;;;;;;;;;;5014618;28;20163;-93
2024/01/11 13:22:34;;;;;;;33.00;15.80;;;;;;;;;;5014536;28;20022;-93
2024/01/11 13:25:00;;;;;;;33.67;15.30;;;;;;;;;;5013221;28;20083;-94
2024/01/11 13:27:25;;;;;;;38.07;16.00;;;;;;;;;;5014862;28;20080;-94
2024/01/11 13:29:50;;;;;;;34.17;14.67;;;;;;;;;;5012878;28;20264;-93
2024/01/11 13:32:16;;;;;;;31.50;14.60;;;;;;;;;;5012845;28;20045;-93
2024/01/11 13:34:42;;;;;;;25.30;11.93;;;;;;;;;;5014552;28;20093;-92
2024/01/11 13:37:07;;;;;;;25.65;12.23;;;;;;;;;;5014488;28;20053;-93
2024/01/11 13:39:33;;;;;;;24.73;11.20;;;;;;;;;;5013609;28;20046;-93
2024/01/11 13:41:58;;;;;;;23.87;10.77;;;;;;;;;;5012555;28;20028;-93
2024/01/11 13:44:23;;;;;;;20.90;9.90;;;;;;;;;;5012803;28;20553;-92
2024/01/11 13:46:48;;;;;;;17.20;8.13;;;;;;;;;;5013954;28;20429;-93
2024/01/11 13:49:13;;;;;;;16.73;6.57;;;;;;;;;;5013715;28;20018;-94
2024/01/11 13:51:39;;;;;;;14.83;6.63;;;;;;;;;;5013617;28;20079;-92
2024/01/11 13:54:04;;;;;;;16.80;6.37;;;;;;;;;;5014002;28;20173;-93
2024/01/11 13:56:29;;;;;;;14.50;6.60;;;;;;;;;;5014658;28;20102;-92
2024/01/11 13:58:55;;;;;;;15.27;5.90;;;;;;;;;;5014688;28;20084;-93
2024/01/11 14:01:20;;;;;;;14.05;6.13;;;;;;;;;;5027679;28;20056;-92
2024/01/11 14:03:45;;;;;;;15.07;6.60;;;;;;;;;;5032546;28;20021;-93
2024/01/11 14:06:10;;;;;;;16.63;6.50;;;;;;;;;;5029293;28;20033;-92
2024/01/11 14:08:36;;;;;;;14.10;6.23;;;;;;;;;;5014952;28;20046;-92
2024/01/11 14:11:01;;;;;;;14.43;6.13;;;;;;;;;;5012883;28;20120;-92